sensor_id;sensor_type;location;lat;lon;timestamp;temperature;humidity
23186;DHT22;11761;51.324;4.590;2023-02-15T00:02:11;0.40;99.90
23186;DHT22;11761;51.324;4.590;2023-02-15T00:04:37;0.40;99.90
23186;DHT22;11761;51.324;4.590;2023-02-15T00:07:22;0.40;99.90
23186;DHT22;11761;51.324;4.590;2023-02-15T00:09:48;0.30;99.90
23186;DHT22;11761;51.324;4.590;2023-02-15T00:12:15;0.30;99.90
23186;DHT22;11761;51.324;4.590;2023-02-15T00:14:41;0.30;99.90
23186;DHT22;11761;51.324;4.590;2023-02-15T00:17:18;0.30;99.90
23186;DHT22;11761;51.324;4.590;2023-02-15T00:19:44;0.30;99.90
23186;DHT22;11761;51.324;4.590;2023-02-15T00:22:10;0.20;99.90
23186;DHT22;11761;51.324;4.590;2023-02-15T00:24:36;0.30;99.90
23186;DHT22;11761;51.324;4.590;2023-02-15T00:27:02;0.20;99.90
23186;DHT22;11761;51.324;4.590;2023-02-15T00:29:28;0.20;99.90
23186;DHT22;11761;51.324;4.590;2023-02-15T00:35:13;0.20;99.90
23186;DHT22;11761;51.324;4.590;2023-02-15T00:37:39;0.10;99.90
23186;DHT22;11761;51.324;4.590;2023-02-15T00:40:06;0.20;99.90
23186;DHT22;11761;51.324;4.590;2023-02-15T00:42:32;0.20;99.90
23186;DHT22;11761;51.324;4.590;2023-02-15T00:44:58;0.10;99.90
23186;DHT22;11761;51.324;4.590;2023-02-15T00:47:24;0.00;99.90
23186;DHT22;11761;51.324;4.590;2023-02-15T00:53:32;0.20;99.90
23186;DHT22;11761;51.324;4.590;2023-02-15T00:55:58;0.20;99.90
23186;DHT22;11761;51.324;4.590;2023-02-15T00:58:24;0.10;99.90
23186;DHT22;11761;51.324;4.590;2023-02-15T01:00:50;0.10;99.90
23186;DHT22;11761;51.324;4.590;2023-02-15T01:03:18;0.10;99.90
23186;DHT22;11761;51.324;4.590;2023-02-15T01:05:46;0.10;99.90
23186;DHT22;11761;51.324;4.590;2023-02-15T01:08:13;0.00;99.90
23186;DHT22;11761;51.324;4.590;2023-02-15T01:10:39;0.00;99.90
23186;DHT22;11761;51.324;4.590;2023-02-15T01:13:06;0.00;99.90
23186;DHT22;11761;51.324;4.590;2023-02-15T01:15:34;0.00;99.90
23186;DHT22;11761;51.324;4.590;2023-02-15T01:18:01;0.00;99.90
23186;DHT22;11761;51.324;4.590;2023-02-15T01:20:28;-0.10;99.90
23186;DHT22;11761;51.324;4.590;2023-02-15T01:22:55;-0.10;99.90
23186;DHT22;11761;51.324;4.590;2023-02-15T01:25:24;-0.10;99.90
23186;DHT22;11761;51.324;4.590;2023-02-15T01:27:51;-0.10;99.90
23186;DHT22;11761;51.324;4.590;2023-02-15T01:30:17;-0.20;99.90
23186;DHT22;11761;51.324;4.590;2023-02-15T01:32:43;-0.10;99.90
23186;DHT22;11761;51.324;4.590;2023-02-15T01:35:10;-0.10;99.90
23186;DHT22;11761;51.324;4.590;2023-02-15T01:37:37;-0.10;99.90
23186;DHT22;11761;51.324;4.590;2023-02-15T01:40:05;-0.20;99.90
23186;DHT22;11761;51.324;4.590;2023-02-15T01:42:32;-0.30;99.90
23186;DHT22;11761;51.324;4.590;2023-02-15T01:45:00;-0.30;99.90
23186;DHT22;11761;51.324;4.590;2023-02-15T01:47:35;-0.30;99.90
23186;DHT22;11761;51.324;4.590;2023-02-15T01:53:01;-0.30;99.90
23186;DHT22;11761;51.324;4.590;2023-02-15T01:55:35;-0.30;99.90
23186;DHT22;11761;51.324;4.590;2023-02-15T01:58:02;-0.30;99.90
23186;DHT22;11761;51.324;4.590;2023-02-15T02:00:29;-0.30;99.90
23186;DHT22;11761;51.324;4.590;2023-02-15T02:02:56;-0.40;99.90
23186;DHT22;11761;51.324;4.590;2023-02-15T02:05:23;-0.40;99.90
23186;DHT22;11761;51.324;4.590;2023-02-15T02:07:51;-0.30;99.90
23186;DHT22;11761;51.324;4.590;2023-02-15T02:10:21;-0.30;99.90
23186;DHT22;11761;51.324;4.590;2023-02-15T02:13:04;-0.30;99.90
23186;DHT22;11761;51.324;4.590;2023-02-15T02:15:58;-0.40;99.90
23186;DHT22;11761;51.324;4.590;2023-02-15T02:21:40;-0.50;99.90
23186;DHT22;11761;51.324;4.590;2023-02-15T02:32:50;-0.50;99.90
23186;DHT22;11761;51.324;4.590;2023-02-15T02:35:30;-0.50;99.90
23186;DHT22;11761;51.324;4.590;2023-02-15T02:38:02;-0.50;99.90
23186;DHT22;11761;51.324;4.590;2023-02-15T02:43:32;-0.60;99.90
23186;DHT22;11761;51.324;4.590;2023-02-15T02:46:05;-0.60;99.90
23186;DHT22;11761;51.324;4.590;2023-02-15T02:48:33;-0.50;99.90
23186;DHT22;11761;51.324;4.590;2023-02-15T02:50:59;-0.60;99.90
23186;DHT22;11761;51.324;4.590;2023-02-15T02:53:26;-0.60;99.90
23186;DHT22;11761;51.324;4.590;2023-02-15T02:55:56;-0.60;99.90
23186;DHT22;11761;51.324;4.590;2023-02-15T02:58:48;-0.60;99.90
23186;DHT22;11761;51.324;4.590;2023-02-15T03:01:20;-0.60;99.90
23186;DHT22;11761;51.324;4.590;2023-02-15T03:03:54;-0.50;99.90
23186;DHT22;11761;51.324;4.590;2023-02-15T03:06:27;-0.50;99.90
23186;DHT22;11761;51.324;4.590;2023-02-15T03:08:58;-0.50;99.90
23186;DHT22;11761;51.324;4.590;2023-02-15T03:11:25;-0.50;99.90
23186;DHT22;11761;51.324;4.590;2023-02-15T03:13:52;-0.50;99.90
23186;DHT22;11761;51.324;4.590;2023-02-15T03:16:19;-0.50;99.90
23186;DHT22;11761;51.324;4.590;2023-02-15T03:19:02;-0.40;99.90
23186;DHT22;11761;51.324;4.590;2023-02-15T03:24:13;-0.50;99.90
23186;DHT22;11761;51.324;4.590;2023-02-15T03:26:40;-0.50;99.90
23186;DHT22;11761;51.324;4.590;2023-02-15T03:29:08;-0.50;99.90
23186;DHT22;11761;51.324;4.590;2023-02-15T03:31:39;-0.50;99.90
23186;DHT22;11761;51.324;4.590;2023-02-15T03:34:10;-0.50;99.90
23186;DHT22;11761;51.324;4.590;2023-02-15T03:40:23;-0.60;99.90
23186;DHT22;11761;51.324;4.590;2023-02-15T03:43:31;-0.60;99.90
23186;DHT22;11761;51.324;4.590;2023-02-15T03:46:13;-0.60;99.90
23186;DHT22;11761;51.324;4.590;2023-02-15T03:48:45;-0.70;99.90
23186;DHT22;11761;51.324;4.590;2023-02-15T03:51:17;-0.70;99.90
23186;DHT22;11761;51.324;4.590;2023-02-15T03:57:41;-0.50;99.90
23186;DHT22;11761;51.324;4.590;2023-02-15T04:00:26;-0.60;99.90
23186;DHT22;11761;51.324;4.590;2023-02-15T04:03:23;-0.60;99.90
23186;DHT22;11761;51.324;4.590;2023-02-15T04:05:52;-0.60;99.90
23186;DHT22;11761;51.324;4.590;2023-02-15T04:08:19;-0.60;99.90
23186;DHT22;11761;51.324;4.590;2023-02-15T04:10:45;-0.50;99.90
23186;DHT22;11761;51.324;4.590;2023-02-15T04:13:31;-0.60;99.90
23186;DHT22;11761;51.324;4.590;2023-02-15T04:15:57;-0.50;99.90
23186;DHT22;11761;51.324;4.590;2023-02-15T04:18:38;-0.50;99.90
23186;DHT22;11761;51.324;4.590;2023-02-15T04:21:24;-0.50;99.90
23186;DHT22;11761;51.324;4.590;2023-02-15T04:24:15;-0.60;99.90
23186;DHT22;11761;51.324;4.590;2023-02-15T04:27:00;-0.70;99.90
23186;DHT22;11761;51.324;4.590;2023-02-15T04:29:27;-0.60;99.90
23186;DHT22;11761;51.324;4.590;2023-02-15T04:31:56;-0.60;99.90
23186;DHT22;11761;51.324;4.590;2023-02-15T04:34:23;-0.70;99.90
23186;DHT22;11761;51.324;4.590;2023-02-15T04:36:49;-0.70;99.90
23186;DHT22;11761;51.324;4.590;2023-02-15T04:39:17;-0.70;99.90
23186;DHT22;11761;51.324;4.590;2023-02-15T04:41:45;-0.80;99.90
23186;DHT22;11761;51.324;4.590;2023-02-15T04:44:11;-0.70;99.90
23186;DHT22;11761;51.324;4.590;2023-02-15T04:46:37;-0.70;99.90
23186;DHT22;11761;51.324;4.590;2023-02-15T04:49:04;-0.80;99.90
23186;DHT22;11761;51.324;4.590;2023-02-15T04:51:30;-0.80;99.90
23186;DHT22;11761;51.324;4.590;2023-02-15T04:53:56;-0.80;99.90
23186;DHT22;11761;51.324;4.590;2023-02-15T04:56:22;-0.80;99.90
23186;DHT22;11761;51.324;4.590;2023-02-15T04:58:48;-0.80;99.90
23186;DHT22;11761;51.324;4.590;2023-02-15T05:01:14;-0.80;99.90
23186;DHT22;11761;51.324;4.590;2023-02-15T05:03:41;-0.80;99.90
23186;DHT22;11761;51.324;4.590;2023-02-15T05:06:07;-0.90;99.90
23186;DHT22;11761;51.324;4.590;2023-02-15T05:08:33;-1.00;99.90
23186;DHT22;11761;51.324;4.590;2023-02-15T05:11:13;-1.00;99.90
23186;DHT22;11761;51.324;4.590;2023-02-15T05:13:40;-1.00;99.90
23186;DHT22;11761;51.324;4.590;2023-02-15T05:16:06;-1.00;99.90
23186;DHT22;11761;51.324;4.590;2023-02-15T05:18:32;-1.00;99.90
23186;DHT22;11761;51.324;4.590;2023-02-15T05:20:58;-1.00;99.90
23186;DHT22;11761;51.324;4.590;2023-02-15T05:23:24;-1.10;99.90
23186;DHT22;11761;51.324;4.590;2023-02-15T05:25:51;-1.20;99.90
23186;DHT22;11761;51.324;4.590;2023-02-15T05:28:46;-1.20;99.90
23186;DHT22;11761;51.324;4.590;2023-02-15T05:31:17;-1.10;99.90
23186;DHT22;11761;51.324;4.590;2023-02-15T05:33:44;-1.00;99.90
23186;DHT22;11761;51.324;4.590;2023-02-15T05:36:11;-0.80;99.90
23186;DHT22;11761;51.324;4.590;2023-02-15T05:38:38;-0.90;99.90
23186;DHT22;11761;51.324;4.590;2023-02-15T05:41:05;-1.10;99.90
23186;DHT22;11761;51.324;4.590;2023-02-15T05:43:54;-1.10;99.90
23186;DHT22;11761;51.324;4.590;2023-02-15T05:46:20;-1.20;99.90
23186;DHT22;11761;51.324;4.590;2023-02-15T05:48:47;-1.20;99.90
23186;DHT22;11761;51.324;4.590;2023-02-15T05:51:13;-1.10;99.90
23186;DHT22;11761;51.324;4.590;2023-02-15T05:53:41;-0.90;99.90
23186;DHT22;11761;51.324;4.590;2023-02-15T05:56:08;-1.00;99.90
23186;DHT22;11761;51.324;4.590;2023-02-15T05:58:37;-1.10;99.90
23186;DHT22;11761;51.324;4.590;2023-02-15T06:01:17;-1.10;99.90
23186;DHT22;11761;51.324;4.590;2023-02-15T06:03:45;-1.10;99.90
23186;DHT22;11761;51.324;4.590;2023-02-15T06:06:11;-1.10;99.90
23186;DHT22;11761;51.324;4.590;2023-02-15T06:08:38;-1.10;99.90
23186;DHT22;11761;51.324;4.590;2023-02-15T06:14:18;-1.10;99.90
23186;DHT22;11761;51.324;4.590;2023-02-15T06:16:44;-1.00;99.90
23186;DHT22;11761;51.324;4.590;2023-02-15T06:19:10;-1.00;99.90
23186;DHT22;11761;51.324;4.590;2023-02-15T06:21:55;-1.00;99.90
23186;DHT22;11761;51.324;4.590;2023-02-15T06:24:21;-1.00;99.90
23186;DHT22;11761;51.324;4.590;2023-02-15T06:26:47;-1.00;99.90
23186;DHT22;11761;51.324;4.590;2023-02-15T06:29:13;-1.10;99.90
23186;DHT22;11761;51.324;4.590;2023-02-15T06:31:39;-1.00;99.90
23186;DHT22;11761;51.324;4.590;2023-02-15T06:34:12;-1.10;99.90
23186;DHT22;11761;51.324;4.590;2023-02-15T06:36:38;-1.00;99.90
23186;DHT22;11761;51.324;4.590;2023-02-15T06:39:12;-1.00;99.90
23186;DHT22;11761;51.324;4.590;2023-02-15T06:41:39;-1.00;99.90
23186;DHT22;11761;51.324;4.590;2023-02-15T06:44:05;-1.00;99.90
23186;DHT22;11761;51.324;4.590;2023-02-15T06:46:31;-0.90;99.90
23186;DHT22;11761;51.324;4.590;2023-02-15T06:48:57;-1.00;99.90
23186;DHT22;11761;51.324;4.590;2023-02-15T06:51:24;-1.00;99.90
23186;DHT22;11761;51.324;4.590;2023-02-15T06:53:51;-1.00;99.90
23186;DHT22;11761;51.324;4.590;2023-02-15T06:56:17;-1.00;99.90
23186;DHT22;11761;51.324;4.590;2023-02-15T06:58:43;-1.00;99.90
23186;DHT22;11761;51.324;4.590;2023-02-15T07:01:13;-0.90;99.90
23186;DHT22;11761;51.324;4.590;2023-02-15T07:03:39;-0.80;99.90
23186;DHT22;11761;51.324;4.590;2023-02-15T07:06:05;-0.70;99.90
23186;DHT22;11761;51.324;4.590;2023-02-15T07:08:35;-0.60;99.90
23186;DHT22;11761;51.324;4.590;2023-02-15T07:11:01;-0.60;99.90
23186;DHT22;11761;51.324;4.590;2023-02-15T07:13:46;-0.40;99.90
23186;DHT22;11761;51.324;4.590;2023-02-15T07:16:13;-0.40;99.90
23186;DHT22;11761;51.324;4.590;2023-02-15T07:18:39;-0.30;99.90
23186;DHT22;11761;51.324;4.590;2023-02-15T07:21:06;-0.30;99.90
23186;DHT22;11761;51.324;4.590;2023-02-15T07:23:39;-0.20;99.90
23186;DHT22;11761;51.324;4.590;2023-02-15T07:26:06;0.00;99.90
23186;DHT22;11761;51.324;4.590;2023-02-15T07:28:34;0.10;99.90
23186;DHT22;11761;51.324;4.590;2023-02-15T07:31:04;0.10;99.90
23186;DHT22;11761;51.324;4.590;2023-02-15T07:33:31;0.30;99.90
23186;DHT22;11761;51.324;4.590;2023-02-15T07:35:59;0.40;99.90
23186;DHT22;11761;51.324;4.590;2023-02-15T07:38:31;0.60;99.90
23186;DHT22;11761;51.324;4.590;2023-02-15T07:41:01;0.80;99.90
23186;DHT22;11761;51.324;4.590;2023-02-15T07:43:28;0.80;99.90
23186;DHT22;11761;51.324;4.590;2023-02-15T07:46:02;1.10;99.90
23186;DHT22;11761;51.324;4.590;2023-02-15T07:48:28;1.10;99.90
23186;DHT22;11761;51.324;4.590;2023-02-15T07:50:59;1.30;99.90
23186;DHT22;11761;51.324;4.590;2023-02-15T07:53:25;1.40;99.90
23186;DHT22;11761;51.324;4.590;2023-02-15T07:55:51;1.50;99.90
23186;DHT22;11761;51.324;4.590;2023-02-15T07:58:18;1.60;99.90
23186;DHT22;11761;51.324;4.590;2023-02-15T08:00:44;1.90;99.90
23186;DHT22;11761;51.324;4.590;2023-02-15T08:03:23;1.90;99.90
23186;DHT22;11761;51.324;4.590;2023-02-15T08:05:57;1.90;99.90
23186;DHT22;11761;51.324;4.590;2023-02-15T08:08:24;2.00;99.90
23186;DHT22;11761;51.324;4.590;2023-02-15T08:11:17;2.20;99.90
23186;DHT22;11761;51.324;4.590;2023-02-15T08:18:56;2.30;99.90
23186;DHT22;11761;51.324;4.590;2023-02-15T08:21:26;2.40;99.90
23186;DHT22;11761;51.324;4.590;2023-02-15T08:23:52;2.70;99.90
23186;DHT22;11761;51.324;4.590;2023-02-15T08:26:18;2.90;99.90
23186;DHT22;11761;51.324;4.590;2023-02-15T08:28:44;3.00;99.90
23186;DHT22;11761;51.324;4.590;2023-02-15T08:31:13;3.00;99.90
23186;DHT22;11761;51.324;4.590;2023-02-15T08:33:41;3.10;99.90
23186;DHT22;11761;51.324;4.590;2023-02-15T08:36:12;3.00;99.90
23186;DHT22;11761;51.324;4.590;2023-02-15T08:38:39;3.20;99.90
23186;DHT22;11761;51.324;4.590;2023-02-15T08:43:39;3.40;99.90
23186;DHT22;11761;51.324;4.590;2023-02-15T08:46:06;3.60;99.90
23186;DHT22;11761;51.324;4.590;2023-02-15T08:48:32;3.90;99.90
23186;DHT22;11761;51.324;4.590;2023-02-15T08:50:58;3.90;99.90
23186;DHT22;11761;51.324;4.590;2023-02-15T08:53:24;4.10;99.90
23186;DHT22;11761;51.324;4.590;2023-02-15T08:55:57;4.00;99.90
23186;DHT22;11761;51.324;4.590;2023-02-15T08:58:23;4.20;99.90
23186;DHT22;11761;51.324;4.590;2023-02-15T09:00:50;4.50;99.90
23186;DHT22;11761;51.324;4.590;2023-02-15T09:03:15;4.90;99.90
23186;DHT22;11761;51.324;4.590;2023-02-15T09:05:41;5.20;99.90
23186;DHT22;11761;51.324;4.590;2023-02-15T09:08:07;5.40;99.90
23186;DHT22;11761;51.324;4.590;2023-02-15T09:10:33;5.50;99.90
23186;DHT22;11761;51.324;4.590;2023-02-15T09:12:59;5.70;99.90
23186;DHT22;11761;51.324;4.590;2023-02-15T09:15:25;5.80;99.90
23186;DHT22;11761;51.324;4.590;2023-02-15T09:17:51;5.90;99.90
23186;DHT22;11761;51.324;4.590;2023-02-15T09:20:17;6.10;99.90
23186;DHT22;11761;51.324;4.590;2023-02-15T09:22:43;6.20;99.90
23186;DHT22;11761;51.324;4.590;2023-02-15T09:25:08;6.30;99.90
23186;DHT22;11761;51.324;4.590;2023-02-15T09:27:34;6.40;99.90
23186;DHT22;11761;51.324;4.590;2023-02-15T09:30:03;6.40;99.90
23186;DHT22;11761;51.324;4.590;2023-02-15T09:32:29;6.40;99.90
23186;DHT22;11761;51.324;4.590;2023-02-15T09:34:55;6.60;99.90
23186;DHT22;11761;51.324;4.590;2023-02-15T09:37:21;6.70;99.90
23186;DHT22;11761;51.324;4.590;2023-02-15T09:39:47;6.90;99.90
23186;DHT22;11761;51.324;4.590;2023-02-15T09:45:37;7.50;99.90
23186;DHT22;11761;51.324;4.590;2023-02-15T09:54:33;7.50;99.90
23186;DHT22;11761;51.324;4.590;2023-02-15T09:56:51;7.60;99.90
23186;DHT22;11761;51.324;4.590;2023-02-15T09:59:43;7.90;99.90
23186;DHT22;11761;51.324;4.590;2023-02-15T10:05:06;7.90;99.90
23186;DHT22;11761;51.324;4.590;2023-02-15T10:10:30;8.20;99.90
23186;DHT22;11761;51.324;4.590;2023-02-15T10:13:32;8.30;99.90
23186;DHT22;11761;51.324;4.590;2023-02-15T10:16:12;8.40;99.90
23186;DHT22;11761;51.324;4.590;2023-02-15T10:21:43;8.80;99.90
23186;DHT22;11761;51.324;4.590;2023-02-15T10:26:48;8.60;99.90
23186;DHT22;11761;51.324;4.590;2023-02-15T10:42:55;10.00;99.90
23186;DHT22;11761;51.324;4.590;2023-02-15T10:51:08;10.10;99.90
23186;DHT22;11761;51.324;4.590;2023-02-15T10:59:50;10.30;99.90
23186;DHT22;11761;51.324;4.590;2023-02-15T11:02:41;10.30;99.90
23186;DHT22;11761;51.324;4.590;2023-02-15T11:07:58;11.10;99.90
23186;DHT22;11761;51.324;4.590;2023-02-15T11:13:08;11.60;99.90
23186;DHT22;11761;51.324;4.590;2023-02-15T11:15:43;11.90;99.90
23186;DHT22;11761;51.324;4.590;2023-02-15T11:18:31;12.00;99.90
23186;DHT22;11761;51.324;4.590;2023-02-15T11:23:36;11.60;99.90
23186;DHT22;11761;51.324;4.590;2023-02-15T11:26:12;12.00;99.90
23186;DHT22;11761;51.324;4.590;2023-02-15T11:28:45;12.20;99.90
23186;DHT22;11761;51.324;4.590;2023-02-15T11:31:21;12.10;99.90
23186;DHT22;11761;51.324;4.590;2023-02-15T11:34:02;11.80;99.90
23186;DHT22;11761;51.324;4.590;2023-02-15T11:36:37;11.90;99.90
23186;DHT22;11761;51.324;4.590;2023-02-15T11:39:10;11.80;99.90
23186;DHT22;11761;51.324;4.590;2023-02-15T11:41:41;11.70;99.90
23186;DHT22;11761;51.324;4.590;2023-02-15T11:44:24;11.90;99.90
23186;DHT22;11761;51.324;4.590;2023-02-15T11:46:52;12.20;99.90
23186;DHT22;11761;51.324;4.590;2023-02-15T11:49:32;12.20;99.90
23186;DHT22;11761;51.324;4.590;2023-02-15T11:52:05;12.00;99.90
23186;DHT22;11761;51.324;4.590;2023-02-15T11:54:34;11.90;99.90
23186;DHT22;11761;51.324;4.590;2023-02-15T11:57:25;11.80;99.90
23186;DHT22;11761;51.324;4.590;2023-02-15T12:00:03;11.70;99.90
23186;DHT22;11761;51.324;4.590;2023-02-15T12:02:36;11.80;99.90
23186;DHT22;11761;51.324;4.590;2023-02-15T12:05:28;11.90;99.90
23186;DHT22;11761;51.324;4.590;2023-02-15T12:08:03;11.90;99.90
23186;DHT22;11761;51.324;4.590;2023-02-15T12:10:42;12.00;99.90
23186;DHT22;11761;51.324;4.590;2023-02-15T12:13:20;12.00;99.90
23186;DHT22;11761;51.324;4.590;2023-02-15T12:15:51;12.00;99.90
23186;DHT22;11761;51.324;4.590;2023-02-15T12:20:53;12.60;99.90
23186;DHT22;11761;51.324;4.590;2023-02-15T12:23:23;12.70;99.90
23186;DHT22;11761;51.324;4.590;2023-02-15T12:25:53;12.70;99.90
23186;DHT22;11761;51.324;4.590;2023-02-15T12:28:24;12.60;99.90
23186;DHT22;11761;51.324;4.590;2023-02-15T12:30:53;13.00;99.90
23186;DHT22;11761;51.324;4.590;2023-02-15T12:33:40;13.20;99.90
23186;DHT22;11761;51.324;4.590;2023-02-15T12:36:21;13.40;99.90
23186;DHT22;11761;51.324;4.590;2023-02-15T12:41:44;13.40;99.90
23186;DHT22;11761;51.324;4.590;2023-02-15T12:47:03;13.10;99.90
23186;DHT22;11761;51.324;4.590;2023-02-15T12:49:33;13.20;99.90
23186;DHT22;11761;51.324;4.590;2023-02-15T12:52:03;13.60;99.90
23186;DHT22;11761;51.324;4.590;2023-02-15T12:54:33;13.80;99.90
23186;DHT22;11761;51.324;4.590;2023-02-15T12:57:29;13.60;99.90
23186;DHT22;11761;51.324;4.590;2023-02-15T13:00:02;13.60;99.90
23186;DHT22;11761;51.324;4.590;2023-02-15T13:02:42;13.50;99.90
23186;DHT22;11761;51.324;4.590;2023-02-15T13:05:31;14.00;99.90
23186;DHT22;11761;51.324;4.590;2023-02-15T13:10:34;13.70;99.90
23186;DHT22;11761;51.324;4.590;2023-02-15T13:13:01;13.40;99.90
23186;DHT22;11761;51.324;4.590;2023-02-15T13:15:34;14.10;99.90
23186;DHT22;11761;51.324;4.590;2023-02-15T13:18:02;14.50;99.90
23186;DHT22;11761;51.324;4.590;2023-02-15T13:20:29;14.30;99.90
23186;DHT22;11761;51.324;4.590;2023-02-15T13:23:22;14.50;99.90
23186;DHT22;11761;51.324;4.590;2023-02-15T13:25:50;14.60;99.90
23186;DHT22;11761;51.324;4.590;2023-02-15T13:28:20;14.70;99.90
23186;DHT22;11761;51.324;4.590;2023-02-15T13:30:49;14.70;99.90
23186;DHT22;11761;51.324;4.590;2023-02-15T13:33:36;14.80;99.90
23186;DHT22;11761;51.324;4.590;2023-02-15T13:36:12;15.00;99.90
23186;DHT22;11761;51.324;4.590;2023-02-15T13:47:44;14.10;99.90
23186;DHT22;11761;51.324;4.590;2023-02-15T13:53:27;13.80;99.90
23186;DHT22;11761;51.324;4.590;2023-02-15T13:56:05;13.90;99.90
23186;DHT22;11761;51.324;4.590;2023-02-15T14:01:55;13.80;99.90
23186;DHT22;11761;51.324;4.590;2023-02-15T14:04:44;13.60;99.90
23186;DHT22;11761;51.324;4.590;2023-02-15T14:10:06;14.10;99.90
23186;DHT22;11761;51.324;4.590;2023-02-15T14:21:23;14.50;99.90
23186;DHT22;11761;51.324;4.590;2023-02-15T14:24:09;14.20;99.90
23186;DHT22;11761;51.324;4.590;2023-02-15T14:35:03;14.00;99.90
23186;DHT22;11761;51.324;4.590;2023-02-15T14:37:41;14.10;99.90
23186;DHT22;11761;51.324;4.590;2023-02-15T14:40:17;14.00;99.90
23186;DHT22;11761;51.324;4.590;2023-02-15T14:43:25;14.20;99.90
23186;DHT22;11761;51.324;4.590;2023-02-15T14:48:30;14.50;99.90
23186;DHT22;11761;51.324;4.590;2023-02-15T14:50:56;14.50;99.90
23186;DHT22;11761;51.324;4.590;2023-02-15T14:53:33;14.60;99.90
23186;DHT22;11761;51.324;4.590;2023-02-15T14:56:21;14.60;99.90
23186;DHT22;11761;51.324;4.590;2023-02-15T15:03:54;13.90;99.90
23186;DHT22;11761;51.324;4.590;2023-02-15T15:06:27;13.80;99.90
23186;DHT22;11761;51.324;4.590;2023-02-15T15:09:25;13.80;99.90
23186;DHT22;11761;51.324;4.590;2023-02-15T15:11:53;13.80;99.90
23186;DHT22;11761;51.324;4.590;2023-02-15T15:17:00;13.40;99.90
23186;DHT22;11761;51.324;4.590;2023-02-15T15:22:24;13.10;99.90
23186;DHT22;11761;51.324;4.590;2023-02-15T15:27:47;12.80;99.90
23186;DHT22;11761;51.324;4.590;2023-02-15T15:43:59;12.40;99.90
23186;DHT22;11761;51.324;4.590;2023-02-15T15:49:40;12.10;99.90
23186;DHT22;11761;51.324;4.590;2023-02-15T15:52:17;12.00;99.90
23186;DHT22;11761;51.324;4.590;2023-02-15T15:54:46;11.80;99.90
23186;DHT22;11761;51.324;4.590;2023-02-15T15:59:53;11.80;99.90
23186;DHT22;11761;51.324;4.590;2023-02-15T16:02:20;11.70;99.90
23186;DHT22;11761;51.324;4.590;2023-02-15T16:04:46;11.70;99.90
23186;DHT22;11761;51.324;4.590;2023-02-15T16:07:24;11.60;99.90
23186;DHT22;11761;51.324;4.590;2023-02-15T16:10:07;11.50;99.90
23186;DHT22;11761;51.324;4.590;2023-02-15T16:12:47;11.30;99.90
23186;DHT22;11761;51.324;4.590;2023-02-15T16:15:24;11.10;99.90
23186;DHT22;11761;51.324;4.590;2023-02-15T16:17:53;11.00;99.90
23186;DHT22;11761;51.324;4.590;2023-02-15T16:20:32;11.00;99.90
23186;DHT22;11761;51.324;4.590;2023-02-15T16:23:16;10.80;99.90
23186;DHT22;11761;51.324;4.590;2023-02-15T16:28:30;10.50;99.90
23186;DHT22;11761;51.324;4.590;2023-02-15T16:31:15;10.30;99.90
23186;DHT22;11761;51.324;4.590;2023-02-15T16:33:43;10.20;99.90
23186;DHT22;11761;51.324;4.590;2023-02-15T16:36:12;9.80;99.90
23186;DHT22;11761;51.324;4.590;2023-02-15T16:41:25;9.20;99.90
23186;DHT22;11761;51.324;4.590;2023-02-15T16:43:54;8.80;99.90
23186;DHT22;11761;51.324;4.590;2023-02-15T16:46:27;8.50;99.90
23186;DHT22;11761;51.324;4.590;2023-02-15T16:48:57;8.30;99.90
23186;DHT22;11761;51.324;4.590;2023-02-15T16:51:30;8.10;99.90
23186;DHT22;11761;51.324;4.590;2023-02-15T16:54:05;7.80;99.90
23186;DHT22;11761;51.324;4.590;2023-02-15T16:56:32;7.70;99.90
23186;DHT22;11761;51.324;4.590;2023-02-15T16:59:04;7.60;99.90
23186;DHT22;11761;51.324;4.590;2023-02-15T17:01:32;7.40;99.90
23186;DHT22;11761;51.324;4.590;2023-02-15T17:06:38;7.10;99.90
23186;DHT22;11761;51.324;4.590;2023-02-15T17:09:15;7.00;99.90
23186;DHT22;11761;51.324;4.590;2023-02-15T17:11:44;7.00;99.90
23186;DHT22;11761;51.324;4.590;2023-02-15T17:14:13;6.70;99.90
23186;DHT22;11761;51.324;4.590;2023-02-15T17:16:50;6.50;99.90
23186;DHT22;11761;51.324;4.590;2023-02-15T17:19:27;6.70;99.90
23186;DHT22;11761;51.324;4.590;2023-02-15T17:22:02;6.60;99.90
23186;DHT22;11761;51.324;4.590;2023-02-15T17:24:36;6.50;99.90
23186;DHT22;11761;51.324;4.590;2023-02-15T17:27:17;6.40;99.90
23186;DHT22;11761;51.324;4.590;2023-02-15T17:29:50;6.30;99.90
23186;DHT22;11761;51.324;4.590;2023-02-15T17:32:20;6.20;99.90
23186;DHT22;11761;51.324;4.590;2023-02-15T17:34:57;6.10;99.90
23186;DHT22;11761;51.324;4.590;2023-02-15T17:40:28;5.90;99.90
23186;DHT22;11761;51.324;4.590;2023-02-15T17:42:55;6.00;99.90
23186;DHT22;11761;51.324;4.590;2023-02-15T17:45:35;5.90;99.90
23186;DHT22;11761;51.324;4.590;2023-02-15T17:48:04;5.80;99.90
23186;DHT22;11761;51.324;4.590;2023-02-15T17:50:31;5.80;99.90
23186;DHT22;11761;51.324;4.590;2023-02-15T17:52:59;5.70;99.90
23186;DHT22;11761;51.324;4.590;2023-02-15T17:55:32;5.60;99.90
23186;DHT22;11761;51.324;4.590;2023-02-15T17:58:06;5.60;99.90
23186;DHT22;11761;51.324;4.590;2023-02-15T18:00:36;5.70;99.90
23186;DHT22;11761;51.324;4.590;2023-02-15T18:03:29;5.60;99.90
23186;DHT22;11761;51.324;4.590;2023-02-15T18:06:16;5.60;99.90
23186;DHT22;11761;51.324;4.590;2023-02-15T18:09:00;5.70;99.90
23186;DHT22;11761;51.324;4.590;2023-02-15T18:11:50;5.80;99.90
23186;DHT22;11761;51.324;4.590;2023-02-15T18:14:18;5.80;99.90
23186;DHT22;11761;51.324;4.590;2023-02-15T18:16:45;6.00;99.90
23186;DHT22;11761;51.324;4.590;2023-02-15T18:19:18;6.10;99.90
23186;DHT22;11761;51.324;4.590;2023-02-15T18:21:48;6.00;99.90
23186;DHT22;11761;51.324;4.590;2023-02-15T18:24:20;5.90;99.90
23186;DHT22;11761;51.324;4.590;2023-02-15T18:26:49;5.90;99.90
23186;DHT22;11761;51.324;4.590;2023-02-15T18:29:16;6.00;99.90
23186;DHT22;11761;51.324;4.590;2023-02-15T18:31:43;5.90;99.90
23186;DHT22;11761;51.324;4.590;2023-02-15T18:34:24;5.90;99.90
23186;DHT22;11761;51.324;4.590;2023-02-15T18:36:53;5.80;99.90
23186;DHT22;11761;51.324;4.590;2023-02-15T18:39:26;5.80;99.90
23186;DHT22;11761;51.324;4.590;2023-02-15T18:41:54;5.60;99.90
23186;DHT22;11761;51.324;4.590;2023-02-15T18:44:21;5.60;99.90
23186;DHT22;11761;51.324;4.590;2023-02-15T18:46:47;5.70;99.90
23186;DHT22;11761;51.324;4.590;2023-02-15T18:49:13;5.60;99.90
23186;DHT22;11761;51.324;4.590;2023-02-15T18:51:39;5.50;99.90
23186;DHT22;11761;51.324;4.590;2023-02-15T18:54:18;5.40;99.90
23186;DHT22;11761;51.324;4.590;2023-02-15T18:56:51;5.40;99.90
23186;DHT22;11761;51.324;4.590;2023-02-15T18:59:18;5.50;99.90
23186;DHT22;11761;51.324;4.590;2023-02-15T19:01:51;5.40;99.90
23186;DHT22;11761;51.324;4.590;2023-02-15T19:04:17;5.50;99.90
23186;DHT22;11761;51.324;4.590;2023-02-15T19:06:45;5.50;99.90
23186;DHT22;11761;51.324;4.590;2023-02-15T19:09:16;5.50;99.90
23186;DHT22;11761;51.324;4.590;2023-02-15T19:11:50;6.20;99.90
23186;DHT22;11761;51.324;4.590;2023-02-15T19:14:24;6.50;99.90
23186;DHT22;11761;51.324;4.590;2023-02-15T19:17:14;6.70;99.90
23186;DHT22;11761;51.324;4.590;2023-02-15T19:19:41;6.90;99.90